Accueil
METAR-TAF:

METAR-TAF

Aéroports :

Aéroport international Saint-Gall-Altenrhein

Saint-Gall, Suisse

latitude: 47-29-06N, longitude: 009-33-43E, altitude: 398 m

Observation

Le bulletin a été fait il y a 32 minutes, à 23:20 UTC
Vent 9 kt de ouest/nord-ouest
Température 3°C
Humidité 81%
Pression 999 hPa
Visibilité 10 km ou plus
Quelques nuages à une hauteur de 8500 ft

METAR: LSZR 232320Z AUTO 29009KT 9999 FEW085 03/00 Q0999

Heure: 00:52 (23:52 UTC)

Prévision

Le bulletin a été fait il y a 9 heures et 27 minutes, à 14:25 UTC
Prévision valable du 23 à 15 UTC au 23 à 24 UTC
Vent 2 kt de direction variable
Visibilité 10 km ou plus
pas de nuages en-dessous de 1500 mètres et pas de cumulonimbus.
Temporairement
du 23 à 15 UTC au 23 à 24 UTC
Visibilité 10 km ou plus
Nuages épars à une hauteur de 5000 ft

TAF: LSZR 231425Z 2315/2324 VRB02KT CAVOK TEMPO 2315/2324 9999 SCT050

Observations et prévisions météorologiques de plus de 4000 aéroports (messages METAR et TAF).

Les stations disponibles sont représentées par des disques jaunes et rouges sur la carte.

Passer la souris dessus pour voir le nom de la station.

Cliquer dessus pour voir les observations et prévisions météorologiques.

Pour changer de carte: cliquez sur les boutons verts avec une croix noire pour zoomer, sur le bouton vert avec un tiret pour effectuer un zoom arrière, ou sur les flèches vertes pour les cartes adjacentes.


METAR-TAF: